createdAt,value
2018-12-30T00:02:24.199Z,5.33
2018-12-30T00:04:51.015Z,4.20
2018-12-30T00:07:17.656Z,4.83
2018-12-30T00:09:45.127Z,4.57
2018-12-30T00:12:11.849Z,5.07
2018-12-30T00:14:38.423Z,5.23
2018-12-30T00:17:04.782Z,4.23
2018-12-30T00:19:31.145Z,4.07
2018-12-30T00:21:57.986Z,3.40
2018-12-30T00:24:24.702Z,3.63
2018-12-30T00:26:51.167Z,4.70
2018-12-30T00:29:17.535Z,4.10
2018-12-30T00:31:44.448Z,4.07
2018-12-30T00:34:10.807Z,4.43
2018-12-30T00:36:37.537Z,3.80
2018-12-30T00:39:04.835Z,3.90
2018-12-30T00:41:31.709Z,3.63
2018-12-30T00:43:58.173Z,4.47
2018-12-30T00:46:24.704Z,4.30
2018-12-30T00:48:51.235Z,4.00
2018-12-30T00:51:17.639Z,5.27
2018-12-30T00:53:45.302Z,3.83
2018-12-30T00:56:11.663Z,5.33
2018-12-30T00:58:38.045Z,5.40
2018-12-30T01:01:04.916Z,4.50
2018-12-30T01:03:31.304Z,4.30
2018-12-30T01:05:57.845Z,4.07
2018-12-30T01:08:24.679Z,3.50
2018-12-30T01:10:51.150Z,3.90
2018-12-30T01:13:17.761Z,3.63
2018-12-30T01:15:44.230Z,5.10
2018-12-30T01:18:10.739Z,3.73
2018-12-30T01:20:37.121Z,4.37
2018-12-30T01:23:03.632Z,3.87
2018-12-30T01:25:30.133Z,4.50
2018-12-30T01:27:56.575Z,3.90
2018-12-30T01:30:23.330Z,3.90
2018-12-30T01:32:49.769Z,4.37
2018-12-30T01:35:16.169Z,3.33
2018-12-30T01:37:42.669Z,3.60
2018-12-30T01:40:09.139Z,4.03
2018-12-30T01:42:35.685Z,4.17
2018-12-30T01:45:02.243Z,3.40
2018-12-30T01:47:28.655Z,3.63
2018-12-30T01:49:55.105Z,3.00
2018-12-30T01:52:21.511Z,3.60
2018-12-30T01:54:48.022Z,3.60
2018-12-30T01:57:15.586Z,3.83
2018-12-30T01:59:42.031Z,3.67
2018-12-30T02:02:09.429Z,2.90
2018-12-30T02:04:35.900Z,4.10
2018-12-30T02:07:02.477Z,4.30
2018-12-30T02:09:28.918Z,4.30
2018-12-30T02:11:55.309Z,3.90
2018-12-30T02:14:21.731Z,4.07
2018-12-30T02:16:48.704Z,4.97
2018-12-30T02:19:15.166Z,3.93
2018-12-30T02:21:41.645Z,3.43
2018-12-30T02:24:08.165Z,4.20
2018-12-30T02:26:34.900Z,4.30
2018-12-30T02:29:01.287Z,3.97
2018-12-30T02:31:28.111Z,3.97
2018-12-30T02:33:54.572Z,4.20
2018-12-30T02:36:20.984Z,3.27
2018-12-30T02:38:47.503Z,3.53
2018-12-30T02:41:13.927Z,3.43
2018-12-30T02:43:40.490Z,3.30
2018-12-30T02:46:06.931Z,3.13
2018-12-30T02:48:33.814Z,3.23
2018-12-30T02:51:00.253Z,3.53
2018-12-30T02:53:26.759Z,4.07
2018-12-30T02:55:53.181Z,3.53
2018-12-30T02:58:19.610Z,3.63
2018-12-30T03:00:47.323Z,3.10
2018-12-30T03:03:13.775Z,3.67
2018-12-30T03:05:40.172Z,3.40
2018-12-30T03:08:06.821Z,4.10
2018-12-30T03:10:33.175Z,4.00
2018-12-30T03:12:59.575Z,3.20
2018-12-30T03:15:26.456Z,3.90
2018-12-30T03:17:52.869Z,3.43
2018-12-30T03:20:19.262Z,3.30
2018-12-30T03:22:45.756Z,3.50
2018-12-30T03:25:12.276Z,3.07
2018-12-30T03:27:38.711Z,3.57
2018-12-30T03:30:06.718Z,3.47
2018-12-30T03:32:33.198Z,3.87
2018-12-30T03:34:59.939Z,3.40
2018-12-30T03:37:26.467Z,3.33
2018-12-30T03:39:52.823Z,2.80
2018-12-30T03:42:21.090Z,3.33
2018-12-30T03:44:47.688Z,4.30
2018-12-30T03:47:14.076Z,3.73
2018-12-30T03:49:40.675Z,3.07
2018-12-30T03:52:08.581Z,3.63
2018-12-30T03:54:35.633Z,3.00
2018-12-30T03:57:02.155Z,3.27
2018-12-30T03:59:28.558Z,3.80
2018-12-30T04:01:54.942Z,3.90
2018-12-30T04:04:21.433Z,3.00
2018-12-30T04:06:47.901Z,3.50
2018-12-30T04:09:14.292Z,3.17
2018-12-30T04:11:40.710Z,4.07
2018-12-30T04:14:07.252Z,3.63
2018-12-30T04:16:34.092Z,3.57
2018-12-30T04:19:00.661Z,3.23
2018-12-30T04:21:27.095Z,3.80
2018-12-30T04:23:53.467Z,3.30
2018-12-30T04:26:19.828Z,3.53
2018-12-30T04:28:46.224Z,3.83
2018-12-30T04:31:12.637Z,4.40
2018-12-30T04:33:39.422Z,4.50
2018-12-30T04:36:05.811Z,4.23
2018-12-30T04:38:32.188Z,3.90
2018-12-30T04:40:58.572Z,3.30
2018-12-30T04:43:24.939Z,3.37
2018-12-30T04:45:51.446Z,3.83
2018-12-30T04:48:17.860Z,3.80
2018-12-30T04:50:44.241Z,3.90
2018-12-30T04:53:10.652Z,3.83
2018-12-30T04:55:37.011Z,3.80
2018-12-30T04:58:03.395Z,4.40
2018-12-30T05:00:29.813Z,4.40
2018-12-30T05:02:56.315Z,4.03
2018-12-30T05:05:23.304Z,5.03
2018-12-30T05:07:49.808Z,4.33
2018-12-30T05:10:16.351Z,4.33
2018-12-30T05:12:42.713Z,4.23
2018-12-30T05:15:09.165Z,4.50
2018-12-30T05:17:35.536Z,4.13
2018-12-30T05:20:02.523Z,4.30
2018-12-30T05:22:33.777Z,4.67
2018-12-30T05:24:57.081Z,4.27
2018-12-30T05:27:24.707Z,4.90
2018-12-30T05:29:51.427Z,5.07
2018-12-30T05:32:17.860Z,4.10
2018-12-30T05:34:44.620Z,4.97
2018-12-30T05:37:11.054Z,3.73
2018-12-30T05:39:37.996Z,4.73
2018-12-30T05:42:04.684Z,3.63
2018-12-30T05:44:31.181Z,4.53
2018-12-30T05:46:57.686Z,3.33
2018-12-30T05:49:24.080Z,4.33
2018-12-30T05:51:50.647Z,4.37
2018-12-30T05:54:17.063Z,4.33
2018-12-30T05:56:43.820Z,4.10
2018-12-30T05:59:10.351Z,5.33
2018-12-30T06:01:36.761Z,4.17
2018-12-30T06:04:03.152Z,3.83
2018-12-30T06:06:29.517Z,3.70
2018-12-30T06:08:55.985Z,3.57
2018-12-30T06:11:22.587Z,3.57
2018-12-30T06:13:49.376Z,3.53
2018-12-30T06:16:16.613Z,3.70
2018-12-30T06:18:42.964Z,5.07
2018-12-30T06:21:09.412Z,4.00
2018-12-30T06:23:35.882Z,3.63
2018-12-30T06:26:02.439Z,3.97
2018-12-30T06:28:28.838Z,4.60
2018-12-30T06:30:55.237Z,4.23
2018-12-30T06:33:21.754Z,4.40
2018-12-30T06:35:48.222Z,4.47
2018-12-30T06:38:14.675Z,4.30
2018-12-30T06:40:41.201Z,3.93
2018-12-30T06:43:07.556Z,5.73
2018-12-30T06:45:34.156Z,4.17
2018-12-30T06:48:00.639Z,4.40
2018-12-30T06:50:27.418Z,4.63
2018-12-30T06:52:57.765Z,4.60
2018-12-30T06:55:23.404Z,3.90
2018-12-30T06:57:50.125Z,5.10
2018-12-30T07:00:16.750Z,3.97
2018-12-30T07:02:43.112Z,4.87
2018-12-30T07:05:09.675Z,3.80
2018-12-30T07:07:36.061Z,3.73
2018-12-30T07:10:03.092Z,3.67
2018-12-30T07:12:31.278Z,4.73
2018-12-30T07:14:57.812Z,4.30
2018-12-30T07:17:24.276Z,3.87
2018-12-30T07:19:50.678Z,4.10
2018-12-30T07:22:17.122Z,3.93
2018-12-30T07:24:43.560Z,3.97
2018-12-30T07:27:10.070Z,3.90
2018-12-30T07:29:36.466Z,4.27
2018-12-30T07:32:02.891Z,3.80
2018-12-30T07:34:29.680Z,4.50
2018-12-30T07:36:56.059Z,4.53
2018-12-30T07:39:22.449Z,3.67
2018-12-30T07:41:48.925Z,3.37
2018-12-30T07:44:15.339Z,4.23
2018-12-30T07:46:41.771Z,4.23
2018-12-30T07:49:08.236Z,3.70
2018-12-30T07:51:34.688Z,3.90
2018-12-30T07:54:01.435Z,4.13
2018-12-30T07:56:27.884Z,4.43
2018-12-30T07:58:54.325Z,3.70
2018-12-30T08:01:20.911Z,3.80
2018-12-30T08:03:47.363Z,3.93
2018-12-30T08:06:13.850Z,3.80
2018-12-30T08:08:40.267Z,3.03
2018-12-30T08:11:06.869Z,4.20
2018-12-30T08:13:33.658Z,3.40
2018-12-30T08:16:00.161Z,2.90
2018-12-30T08:18:26.516Z,4.10
2018-12-30T08:20:52.935Z,3.50
2018-12-30T08:23:21.771Z,3.03
2018-12-30T08:25:47.719Z,3.27
2018-12-30T08:28:14.070Z,2.97
2018-12-30T08:30:40.868Z,3.20
2018-12-30T08:33:07.323Z,3.17
2018-12-30T08:35:34.903Z,3.30
2018-12-30T08:38:01.411Z,3.70
2018-12-30T08:40:27.939Z,3.27
2018-12-30T08:42:54.778Z,2.77
2018-12-30T08:45:21.605Z,3.43
2018-12-30T08:47:48.131Z,3.53
2018-12-30T08:50:15.023Z,3.43
2018-12-30T08:52:41.455Z,3.70
2018-12-30T08:55:07.950Z,4.13
2018-12-30T08:57:34.742Z,4.17
2018-12-30T09:00:02.085Z,3.97
2018-12-30T09:02:28.623Z,3.87
2018-12-30T09:04:55.042Z,3.40
2018-12-30T09:07:21.468Z,4.03
2018-12-30T09:09:47.861Z,3.13
2018-12-30T09:12:15.028Z,3.10
2018-12-30T09:14:41.437Z,3.33
2018-12-30T09:17:07.836Z,3.70
2018-12-30T09:19:34.559Z,3.50
2018-12-30T09:22:00.951Z,3.50
2018-12-30T09:24:27.774Z,2.73
2018-12-30T09:26:54.553Z,2.80
2018-12-30T09:29:21.519Z,3.43
2018-12-30T09:31:48.014Z,2.50
2018-12-30T09:34:14.443Z,2.93
2018-12-30T09:36:40.881Z,3.00
2018-12-30T09:39:07.627Z,3.10
2018-12-30T09:41:34.073Z,2.80
2018-12-30T09:44:00.468Z,3.00
2018-12-30T09:46:26.865Z,3.37
2018-12-30T09:48:53.258Z,3.47
2018-12-30T09:51:19.771Z,3.50
2018-12-30T09:53:46.259Z,3.80
2018-12-30T09:56:12.659Z,3.10
2018-12-30T09:58:39.189Z,3.10
2018-12-30T10:01:05.924Z,2.73
2018-12-30T10:03:32.327Z,3.50
2018-12-30T10:05:59.106Z,2.60
2018-12-30T10:08:25.593Z,3.23
2018-12-30T10:10:52.033Z,3.07
2018-12-30T10:13:18.457Z,3.23
2018-12-30T10:15:44.904Z,3.20
2018-12-30T10:18:11.317Z,2.80
2018-12-30T10:20:37.704Z,3.80
2018-12-30T10:23:04.107Z,4.97
2018-12-30T10:25:30.535Z,5.20
2018-12-30T10:27:57.126Z,5.70
2018-12-30T10:30:26.687Z,4.73
2018-12-30T10:32:53.401Z,4.10
2018-12-30T10:35:19.870Z,3.77
2018-12-30T10:37:46.304Z,3.73
2018-12-30T10:40:13.032Z,2.97
2018-12-30T10:42:39.592Z,2.60
2018-12-30T10:45:06.250Z,2.73
2018-12-30T10:47:33.076Z,3.27
2018-12-30T10:49:59.431Z,2.70
2018-12-30T10:52:25.828Z,2.80
2018-12-30T10:54:52.292Z,2.73
2018-12-30T10:57:19.123Z,2.73
2018-12-30T10:59:45.670Z,2.30
2018-12-30T11:02:12.420Z,2.90
2018-12-30T11:04:38.908Z,3.07
2018-12-30T11:07:05.377Z,2.83
2018-12-30T11:09:32.130Z,2.70
2018-12-30T11:11:58.627Z,2.83
2018-12-30T11:14:25.031Z,3.27
2018-12-30T11:16:51.475Z,3.17
2018-12-30T11:19:18.082Z,2.73
2018-12-30T11:21:44.647Z,3.33
2018-12-30T11:24:11.124Z,2.90
2018-12-30T11:26:37.507Z,3.03
2018-12-30T11:29:04.041Z,3.10
2018-12-30T11:31:30.503Z,3.00
2018-12-30T11:33:57.230Z,2.73
2018-12-30T11:36:23.703Z,2.70
2018-12-30T11:38:50.683Z,2.87
2018-12-30T11:41:17.147Z,3.20
2018-12-30T11:43:43.863Z,3.30
2018-12-30T11:46:10.917Z,3.40
2018-12-30T11:48:38.322Z,3.23
2018-12-30T11:51:05.204Z,3.47
2018-12-30T11:53:31.681Z,3.30
2018-12-30T11:55:59.164Z,3.40
2018-12-30T11:58:25.836Z,3.00
2018-12-30T12:00:52.573Z,3.17
2018-12-30T12:03:19.170Z,3.27
2018-12-30T12:05:45.917Z,4.03
2018-12-30T12:08:12.830Z,3.57
2018-12-30T12:10:39.202Z,3.40
2018-12-30T12:13:05.694Z,3.37
2018-12-30T12:15:32.223Z,4.07
2018-12-30T12:17:58.628Z,3.03
2018-12-30T12:20:25.088Z,3.30
2018-12-30T12:22:52.007Z,3.00
2018-12-30T12:25:18.452Z,3.93
2018-12-30T12:27:44.975Z,3.73
2018-12-30T12:30:13.129Z,3.07
2018-12-30T12:32:39.668Z,3.43
2018-12-30T12:35:06.708Z,3.53
2018-12-30T12:37:33.216Z,3.70
2018-12-30T12:39:59.969Z,4.10
2018-12-30T12:42:26.581Z,4.60
2018-12-30T12:44:53.005Z,4.53
2018-12-30T12:47:19.713Z,4.13
2018-12-30T12:49:46.224Z,4.00
2018-12-30T12:52:12.588Z,3.57
2018-12-30T12:54:39.117Z,3.90
2018-12-30T12:57:05.612Z,4.90
2018-12-30T12:59:32.411Z,4.33
2018-12-30T13:01:58.811Z,3.80
2018-12-30T13:04:25.346Z,3.73
2018-12-30T13:06:51.744Z,3.77
2018-12-30T13:09:18.249Z,4.47
2018-12-30T13:11:45.148Z,4.60
2018-12-30T13:14:11.664Z,4.00
2018-12-30T13:16:38.030Z,4.20
2018-12-30T13:19:04.377Z,4.00
2018-12-30T13:21:30.833Z,4.43
2018-12-30T13:23:57.731Z,4.37
2018-12-30T13:26:24.125Z,4.23
2018-12-30T13:28:50.558Z,4.33
2018-12-30T13:31:17.072Z,4.87
2018-12-30T13:33:46.487Z,4.33
2018-12-30T13:36:13.335Z,4.93
2018-12-30T13:38:39.774Z,4.47
2018-12-30T13:41:06.223Z,5.03
2018-12-30T13:43:32.643Z,5.47
2018-12-30T13:45:59.109Z,4.17
2018-12-30T13:48:25.624Z,5.23
2018-12-30T13:50:52.031Z,5.20
2018-12-30T13:53:18.803Z,5.03
2018-12-30T13:55:45.338Z,5.80
2018-12-30T13:58:12.058Z,5.63
2018-12-30T14:00:38.581Z,6.10
2018-12-30T14:03:04.997Z,6.43
2018-12-30T14:05:31.837Z,5.50
2018-12-30T14:07:58.334Z,6.13
2018-12-30T14:10:25.166Z,7.10
2018-12-30T14:12:51.552Z,6.07
2018-12-30T14:15:18.054Z,5.90
2018-12-30T14:17:45.518Z,7.10
2018-12-30T14:20:12.976Z,6.73
2018-12-30T14:22:39.963Z,6.17
2018-12-30T14:25:06.866Z,6.00
2018-12-30T14:27:33.358Z,5.63
2018-12-30T14:29:59.779Z,6.60
2018-12-30T14:32:26.594Z,6.97
2018-12-30T14:34:53.087Z,5.43
2018-12-30T14:37:21.415Z,6.10
2018-12-30T14:39:47.890Z,6.27
2018-12-30T14:42:14.421Z,6.90
2018-12-30T14:44:41.202Z,6.33
2018-12-30T14:47:07.573Z,5.93
2018-12-30T14:49:34.181Z,6.37
2018-12-30T14:52:00.975Z,5.83
2018-12-30T14:54:27.388Z,5.30
2018-12-30T14:56:53.835Z,6.10
2018-12-30T14:59:20.292Z,5.40
2018-12-30T15:01:46.732Z,5.23
2018-12-30T15:04:13.815Z,5.23
2018-12-30T15:06:40.187Z,5.67
2018-12-30T15:09:07.057Z,6.47
2018-12-30T15:11:33.476Z,6.23
2018-12-30T15:13:59.974Z,5.63
2018-12-30T15:16:27.082Z,5.93
2018-12-30T15:18:53.779Z,6.07
2018-12-30T15:21:21.429Z,5.57
2018-12-30T15:23:47.795Z,6.60
2018-12-30T15:26:14.644Z,6.97
2018-12-30T15:28:41.411Z,6.63
2018-12-30T15:31:08.278Z,6.17
2018-12-30T15:33:34.713Z,6.60
2018-12-30T15:36:01.299Z,6.60
2018-12-30T15:38:27.701Z,6.93
2018-12-30T15:40:54.203Z,6.07
2018-12-30T15:43:22.174Z,6.13
2018-12-30T15:45:48.580Z,7.50
2018-12-30T15:48:15.395Z,7.30
2018-12-30T15:50:41.786Z,7.53
2018-12-30T15:53:08.311Z,6.93
2018-12-30T15:55:34.789Z,7.70
2018-12-30T15:58:01.521Z,8.20
2018-12-30T16:00:28.395Z,8.60
2018-12-30T16:02:56.134Z,8.67
2018-12-30T16:05:22.630Z,9.60
2018-12-30T16:07:49.032Z,9.17
2018-12-30T16:10:15.501Z,9.67
2018-12-30T16:12:41.913Z,10.43
2018-12-30T16:15:08.784Z,9.63
2018-12-30T16:17:36.062Z,10.30
2018-12-30T16:20:04.255Z,12.20
2018-12-30T16:22:30.647Z,12.43
2018-12-30T16:24:57.051Z,12.23
2018-12-30T16:27:23.560Z,12.23
2018-12-30T16:29:50.285Z,12.87
2018-12-30T16:32:16.791Z,13.00
2018-12-30T16:34:43.160Z,13.33
2018-12-30T16:37:09.917Z,14.13
2018-12-30T16:39:36.657Z,14.60
2018-12-30T16:42:03.379Z,14.47
2018-12-30T16:44:30.091Z,14.30
2018-12-30T16:46:56.872Z,15.17
2018-12-30T16:49:23.376Z,15.53
2018-12-30T16:51:50.565Z,17.17
2018-12-30T16:54:17.067Z,17.60
2018-12-30T16:56:43.936Z,18.73
2018-12-30T16:59:10.661Z,19.57
2018-12-30T17:01:37.099Z,19.33
2018-12-30T17:04:03.487Z,20.83
2018-12-30T17:06:33.936Z,21.40
2018-12-30T17:09:00.244Z,23.07
2018-12-30T17:11:26.591Z,21.27
2018-12-30T17:13:53.445Z,23.43
2018-12-30T17:16:19.860Z,22.13
2018-12-30T17:18:46.280Z,23.47
2018-12-30T17:21:12.674Z,25.30
2018-12-30T17:23:39.441Z,26.20
2018-12-30T17:26:05.914Z,25.30
2018-12-30T17:28:32.353Z,25.10
2018-12-30T17:30:59.061Z,27.37
2018-12-30T17:33:25.437Z,26.43
2018-12-30T17:35:51.930Z,26.20
2018-12-30T17:38:18.312Z,26.10
2018-12-30T17:40:44.730Z,25.07
2018-12-30T17:43:11.528Z,27.63
2018-12-30T17:45:38.335Z,27.03
2018-12-30T17:48:04.742Z,27.47
2018-12-30T17:50:31.118Z,26.30
2018-12-30T17:52:57.619Z,28.17
2018-12-30T17:55:25.235Z,27.43
2018-12-30T17:57:51.611Z,27.27
2018-12-30T18:00:18.243Z,29.20
2018-12-30T18:02:44.615Z,27.70
2018-12-30T18:05:11.515Z,28.40
2018-12-30T18:07:38.105Z,27.93
2018-12-30T18:10:05.120Z,28.63
2018-12-30T18:12:31.926Z,28.43
2018-12-30T18:14:58.366Z,29.03
2018-12-30T18:17:24.801Z,26.97
2018-12-30T18:19:51.494Z,27.90
2018-12-30T18:22:17.976Z,26.47
2018-12-30T18:24:44.386Z,26.93
2018-12-30T18:27:11.320Z,27.87
2018-12-30T18:29:37.745Z,26.90
2018-12-30T18:32:04.600Z,25.97
2018-12-30T18:34:31.479Z,26.57
2018-12-30T18:36:57.965Z,24.83
2018-12-30T18:39:24.384Z,24.97
2018-12-30T18:41:50.840Z,25.00
2018-12-30T18:44:17.644Z,25.23
2018-12-30T18:46:44.044Z,26.07
2018-12-30T18:49:10.634Z,28.67
2018-12-30T18:51:37.126Z,27.30
2018-12-30T18:54:05.896Z,28.17
2018-12-30T18:56:32.191Z,26.43
2018-12-30T18:58:59.720Z,27.17
2018-12-30T19:01:26.135Z,27.67
2018-12-30T19:03:52.894Z,27.80
2018-12-30T19:06:19.260Z,29.17
2018-12-30T19:08:46.055Z,28.13
2018-12-30T19:11:12.890Z,29.17
2018-12-30T19:13:39.343Z,29.07
2018-12-30T19:16:06.171Z,26.53
2018-12-30T19:18:32.967Z,28.53
2018-12-30T19:20:59.798Z,27.23
2018-12-30T19:23:26.220Z,26.30
2018-12-30T19:25:52.610Z,27.53
2018-12-30T19:28:19.547Z,27.87
2018-12-30T19:30:46.200Z,27.40
2018-12-30T19:33:12.972Z,28.10
2018-12-30T19:35:40.693Z,27.63
2018-12-30T19:38:07.250Z,26.97
2018-12-30T19:40:33.678Z,27.97
2018-12-30T19:43:00.140Z,27.63
2018-12-30T19:45:26.699Z,27.40
2018-12-30T19:47:53.116Z,29.50
2018-12-30T19:50:19.537Z,29.10
2018-12-30T19:52:46.278Z,28.43
2018-12-30T19:55:13.042Z,28.57
2018-12-30T19:57:39.535Z,28.97
2018-12-30T20:00:08.108Z,30.07
2018-12-30T20:02:34.516Z,30.90
2018-12-30T20:05:01.012Z,32.23
2018-12-30T20:07:28.690Z,31.97
2018-12-30T20:09:55.133Z,36.87
2018-12-30T20:12:21.699Z,35.43
2018-12-30T20:14:48.062Z,33.57
2018-12-30T20:17:14.430Z,33.17
2018-12-30T20:19:41.196Z,36.10
2018-12-30T20:22:07.692Z,33.73
2018-12-30T20:24:34.209Z,34.27
2018-12-30T20:27:00.607Z,33.47
2018-12-30T20:29:27.037Z,34.03
2018-12-30T20:31:53.472Z,34.87
2018-12-30T20:34:20.722Z,34.90
2018-12-30T20:36:47.181Z,33.23
2018-12-30T20:39:14.669Z,32.17
2018-12-30T20:41:41.018Z,32.17
2018-12-30T20:44:07.471Z,32.50
2018-12-30T20:46:33.989Z,33.83
2018-12-30T20:49:00.392Z,33.17
2018-12-30T20:51:26.766Z,32.07
2018-12-30T20:53:53.168Z,35.43
2018-12-30T20:56:19.612Z,32.47
2018-12-30T20:58:45.997Z,33.97
2018-12-30T21:01:12.393Z,33.67
2018-12-30T21:03:39.156Z,33.73
2018-12-30T21:06:05.582Z,33.03
2018-12-30T21:08:32.308Z,33.93
2018-12-30T21:10:58.995Z,34.60
2018-12-30T21:13:25.522Z,33.63
2018-12-30T21:15:52.264Z,33.37
2018-12-30T21:18:18.779Z,33.97
2018-12-30T21:20:45.483Z,33.10
2018-12-30T21:23:11.869Z,34.63
2018-12-30T21:25:38.284Z,36.27
2018-12-30T21:28:04.639Z,34.43
2018-12-30T21:30:31.405Z,36.17
2018-12-30T21:32:57.851Z,34.30
2018-12-30T21:35:24.622Z,35.20
2018-12-30T21:37:51.151Z,33.00
2018-12-30T21:40:17.702Z,34.90
2018-12-30T21:42:44.463Z,35.60
2018-12-30T21:45:11.231Z,34.53
2018-12-30T21:47:37.593Z,36.40
2018-12-30T21:50:05.418Z,34.87
2018-12-30T21:52:32.142Z,34.10
2018-12-30T21:54:58.556Z,35.43
2018-12-30T21:57:25.063Z,35.60
2018-12-30T21:59:51.553Z,34.30
2018-12-30T22:02:18.354Z,33.47
2018-12-30T22:04:44.853Z,35.40
2018-12-30T22:07:11.251Z,32.50
2018-12-30T22:09:37.659Z,32.13
2018-12-30T22:12:04.336Z,32.37
2018-12-30T22:14:30.887Z,32.27
2018-12-30T22:16:57.405Z,33.77
2018-12-30T22:19:23.799Z,32.00
2018-12-30T22:21:50.216Z,32.97
2018-12-30T22:24:17.851Z,33.80
2018-12-30T22:26:44.542Z,33.40
2018-12-30T22:29:11.307Z,32.13
2018-12-30T22:31:37.685Z,33.73
2018-12-30T22:34:04.419Z,32.93
2018-12-30T22:36:30.830Z,33.47
2018-12-30T22:38:57.690Z,32.93
2018-12-30T22:41:24.118Z,34.27
2018-12-30T22:43:50.497Z,32.57
2018-12-30T22:46:17.394Z,34.53
2018-12-30T22:48:43.830Z,32.93
2018-12-30T22:51:10.482Z,33.17
2018-12-30T22:53:37.000Z,34.77
2018-12-30T22:56:03.451Z,31.83
2018-12-30T22:58:29.946Z,30.90
2018-12-30T23:00:58.703Z,31.97
2018-12-30T23:03:25.297Z,31.07
2018-12-30T23:05:51.807Z,30.83
2018-12-30T23:08:18.204Z,32.83
2018-12-30T23:10:46.554Z,32.50
2018-12-30T23:13:13.187Z,35.17
2018-12-30T23:15:39.670Z,35.43
2018-12-30T23:18:06.100Z,33.33
2018-12-30T23:20:32.463Z,35.53
2018-12-30T23:22:58.969Z,34.20
2018-12-30T23:25:25.773Z,32.33
2018-12-30T23:27:53.492Z,32.87
2018-12-30T23:30:19.932Z,31.57
2018-12-30T23:32:46.341Z,33.03
2018-12-30T23:35:12.691Z,31.03
2018-12-30T23:37:39.478Z,35.60
2018-12-30T23:40:05.955Z,35.87
2018-12-30T23:42:32.725Z,34.70
2018-12-30T23:44:59.072Z,33.23
2018-12-30T23:47:25.491Z,33.43
2018-12-30T23:49:52.279Z,31.80
2018-12-30T23:52:18.691Z,33.83
2018-12-30T23:54:45.077Z,32.43
2018-12-30T23:57:12.220Z,29.47
2018-12-30T23:59:38.687Z,31.87
